Time;durP1;ratioP1;P1;durP2;ratioP2;P2;SDS_P1;SDS_P2;PMS_P1;PMS_P2;Temp;Humidity;BMP_temperature;BMP_pressure;BME280_temperature;BME280_humidity;BME280_pressure;Samples;Min_cycle;Max_cycle;Signal;HPM_P1;HPM_P2
2022/12/14 00:01:37;;;;;;;;;63.00;46.33;;;;;;;;5101887;27;45350;-63
2022/12/14 00:04:02;;;;;;;;;46.00;41.33;;;;;;;;5116538;27;45397;-63
2022/12/14 00:06:29;;;;;;;;;64.33;46.00;;;;;;;;5111209;27;46282;-63
2022/12/14 00:08:56;;;;;;;;;63.00;45.00;;;;;;;;5107954;27;45684;-63
2022/12/14 00:11:21;;;;;;;;;53.33;41.00;;;;;;;;5119367;27;45450;-63
2022/12/14 00:13:50;;;;;;;;;63.00;46.33;;;;;;;;5116784;27;46251;-63
2022/12/14 00:16:16;;;;;;;;;57.67;44.67;;;;;;;;5116777;27;45436;-63
2022/12/14 00:18:41;;;;;;;;;57.00;39.00;;;;;;;;5116400;27;46329;-63
2022/12/14 00:21:11;;;;;;;;;58.33;40.33;;;;;;;;5118565;27;45501;-63
2022/12/14 00:23:37;;;;;;;;;63.33;45.67;;;;;;;;5096518;27;45525;-63
2022/12/14 00:26:09;;;;;;;;;53.00;41.33;;;;;;;;5091419;27;45353;-63
2022/12/14 00:28:35;;;;;;;;;53.33;44.00;;;;;;;;5096782;27;46727;-63
2022/12/14 00:31:00;;;;;;;;;52.33;39.33;;;;;;;;5091869;27;45501;-63
2022/12/14 00:33:25;;;;;;;;;61.00;45.33;;;;;;;;5099059;27;45400;-63
2022/12/14 00:35:51;;;;;;;;;59.33;41.67;;;;;;;;5098305;27;45424;-63
2022/12/14 00:38:16;;;;;;;;;51.33;41.67;;;;;;;;5090034;27;46196;-63
2022/12/14 00:40:41;;;;;;;;;61.67;43.33;;;;;;;;5080289;27;45425;-63
2022/12/14 00:43:06;;;;;;;;;54.67;43.00;;;;;;;;5098160;27;45246;-63
2022/12/14 00:45:32;;;;;;;;;51.00;42.00;;;;;;;;5098945;27;45399;-63
2022/12/14 00:47:57;;;;;;;;;56.00;42.00;;;;;;;;5091841;27;46350;-63
2022/12/14 00:50:22;;;;;;;;;56.00;45.33;;;;;;;;5091637;27;45430;-63
2022/12/14 00:52:47;;;;;;;;;36.33;26.33;;;;;;;;5093940;27;45434;-63
2022/12/14 00:55:12;;;;;;;;;60.00;43.67;;;;;;;;5098526;27;45423;-63
2022/12/14 00:57:38;;;;;;;;;53.00;42.00;;;;;;;;5082738;27;46478;-63
2022/12/14 01:00:04;;;;;;;;;53.33;40.33;;;;;;;;5098426;27;45440;-63
2022/12/14 01:02:29;;;;;;;;;48.00;36.33;;;;;;;;5098960;27;45811;-63
2022/12/14 01:04:54;;;;;;;;;56.00;41.00;;;;;;;;5099277;27;45336;-63
2022/12/14 01:07:19;;;;;;;;;51.33;42.67;;;;;;;;5083831;27;45464;-63
2022/12/14 01:09:45;;;;;;;;;41.00;34.67;;;;;;;;5078641;28;45277;-63
2022/12/14 01:12:10;;;;;;;;;59.67;43.00;;;;;;;;5078634;28;45438;-63
2022/12/14 01:14:35;;;;;;;;;49.67;41.67;;;;;;;;5078535;27;45341;-63
2022/12/14 01:17:00;;;;;;;;;58.33;42.33;;;;;;;;5078132;28;45598;-63
2022/12/14 01:19:25;;;;;;;;;53.00;41.33;;;;;;;;5093026;27;45407;-63
2022/12/14 01:21:52;;;;;;;;;50.00;42.00;;;;;;;;5103312;27;45171;-63
2022/12/14 01:24:17;;;;;;;;;58.67;44.33;;;;;;;;5119637;27;45385;-63
2022/12/14 01:26:42;;;;;;;;;54.00;42.00;;;;;;;;5119010;27;45657;-63
2022/12/14 01:29:10;;;;;;;;;55.00;40.33;;;;;;;;5119409;27;45405;-63
2022/12/14 01:31:36;;;;;;;;;47.00;40.67;;;;;;;;5117185;27;45455;-64
2022/12/14 01:34:01;;;;;;;;;55.67;42.33;;;;;;;;5119357;27;45394;-63
2022/12/14 01:36:28;;;;;;;;;55.00;41.33;;;;;;;;5119219;27;46501;-63
2022/12/14 01:38:54;;;;;;;;;50.00;40.67;;;;;;;;5117083;27;45243;-63
2022/12/14 01:41:27;;;;;;;;;55.33;39.33;;;;;;;;5119342;27;45323;-63
2022/12/14 01:43:53;;;;;;;;;49.33;38.67;;;;;;;;5108297;27;45371;-63
2022/12/14 01:46:39;;;;;;;;;47.00;38.67;;;;;;;;5097565;27;47369;-63
2022/12/14 01:49:10;;;;;;;;;48.00;39.67;;;;;;;;5034881;28;45470;-63
2022/12/14 01:51:36;;;;;;;;;50.33;39.67;;;;;;;;5035312;28;45492;-63
2022/12/14 01:54:02;;;;;;;;;58.33;45.67;;;;;;;;5050270;28;45485;-63
2022/12/14 01:56:28;;;;;;;;;40.67;35.33;;;;;;;;5054016;28;45369;-63
2022/12/14 01:58:55;;;;;;;;;51.00;43.00;;;;;;;;5055336;28;45459;-63
2022/12/14 02:01:20;;;;;;;;;42.00;39.00;;;;;;;;5051115;28;45381;-63
2022/12/14 02:03:48;;;;;;;;;53.00;38.33;;;;;;;;5039487;28;45541;-63
2022/12/14 02:06:21;;;;;;;;;46.00;37.67;;;;;;;;5034779;28;47276;-63
2022/12/14 02:08:48;;;;;;;;;49.00;41.33;;;;;;;;5034911;28;45387;-63
2022/12/14 02:11:16;;;;;;;;;60.33;42.00;;;;;;;;5042899;28;45359;-63
2022/12/14 02:13:41;;;;;;;;;52.67;40.33;;;;;;;;5055112;28;45511;-63
2022/12/14 02:16:07;;;;;;;;;49.33;42.00;;;;;;;;5054779;28;45306;-63
2022/12/14 02:18:33;;;;;;;;;57.00;38.67;;;;;;;;5054594;28;45440;-63
2022/12/14 02:20:58;;;;;;;;;46.00;40.00;;;;;;;;5045098;28;45497;-63
2022/12/14 02:23:26;;;;;;;;;50.33;39.33;;;;;;;;5034576;28;45679;-63
2022/12/14 02:25:51;;;;;;;;;56.00;44.67;;;;;;;;5062762;27;45602;-63
2022/12/14 02:28:23;;;;;;;;;58.67;42.33;;;;;;;;5099667;27;45316;-63
2022/12/14 02:30:54;;;;;;;;;51.33;42.00;;;;;;;;5110476;27;45398;-63
2022/12/14 02:33:31;;;;;;;;;55.33;40.67;;;;;;;;5118156;27;45352;-63
2022/12/14 02:36:10;;;;;;;;;44.33;38.67;;;;;;;;5117742;27;46349;-63
2022/12/14 02:38:38;;;;;;;;;55.33;39.33;;;;;;;;5117095;27;45498;-63
2022/12/14 02:41:06;;;;;;;;;52.33;39.00;;;;;;;;5118385;27;45457;-63
2022/12/14 02:43:46;;;;;;;;;46.00;39.00;;;;;;;;5118287;27;45255;-63
2022/12/14 02:46:22;;;;;;;;;45.33;38.67;;;;;;;;5117912;27;46399;-63
2022/12/14 02:48:55;;;;;;;;;53.33;41.00;;;;;;;;5117752;27;45425;-63
2022/12/14 02:51:29;;;;;;;;;42.33;38.00;;;;;;;;5118287;27;45409;-63
2022/12/14 02:53:55;;;;;;;;;42.67;36.33;;;;;;;;5116802;27;45503;-63
2022/12/14 02:56:24;;;;;;;;;46.67;41.33;;;;;;;;5117879;27;46304;-63
2022/12/14 02:58:50;;;;;;;;;39.67;37.00;;;;;;;;5105383;27;45521;-63
2022/12/14 03:01:18;;;;;;;;;41.00;38.00;;;;;;;;5097248;27;45410;-63
2022/12/14 03:03:43;;;;;;;;;49.67;37.00;;;;;;;;5097245;27;45411;-63
2022/12/14 03:06:24;;;;;;;;;49.33;39.00;;;;;;;;5117502;27;45265;-63
2022/12/14 03:08:50;;;;;;;;;48.33;38.33;;;;;;;;5117736;27;45369;-63
2022/12/14 03:11:19;;;;;;;;;45.00;34.33;;;;;;;;5114346;27;45379;-63
2022/12/14 03:13:50;;;;;;;;;53.67;39.67;;;;;;;;5097919;27;45379;-63
2022/12/14 03:16:15;;;;;;;;;48.00;39.00;;;;;;;;5096851;27;45370;-63
2022/12/14 03:18:44;;;;;;;;;48.67;41.67;;;;;;;;5096857;27;45433;-63
2022/12/14 03:21:12;;;;;;;;;53.00;39.33;;;;;;;;5111646;27;45340;-63
2022/12/14 03:23:40;;;;;;;;;49.00;38.00;;;;;;;;5117413;27;45449;-63
2022/12/14 03:26:16;;;;;;;;;40.00;35.00;;;;;;;;5117320;27;46147;-63
2022/12/14 03:28:48;;;;;;;;;44.67;37.67;;;;;;;;5102706;27;45340;-63
2022/12/14 03:31:18;;;;;;;;;46.00;37.00;;;;;;;;5096845;27;45403;-63
2022/12/14 03:33:45;;;;;;;;;38.33;31.33;;;;;;;;5096781;27;45304;-63
2022/12/14 03:36:15;;;;;;;;;59.33;42.00;;;;;;;;5106109;27;46293;-63
2022/12/14 03:38:41;;;;;;;;;47.67;37.67;;;;;;;;5120888;27;45385;-63
2022/12/14 03:41:10;;;;;;;;;40.67;33.67;;;;;;;;5115939;27;45516;-63
2022/12/14 03:43:38;;;;;;;;;46.00;37.33;;;;;;;;5100788;27;45422;-63
2022/12/14 03:46:10;;;;;;;;;62.67;39.67;;;;;;;;5099793;27;46088;-63
2022/12/14 03:48:35;;;;;;;;;59.67;39.33;;;;;;;;5100026;27;45237;-63
2022/12/14 03:51:03;;;;;;;;;48.67;39.33;;;;;;;;5100645;27;45243;-63
2022/12/14 03:53:45;;;;;;;;;48.00;37.67;;;;;;;;5100557;27;45315;-63
2022/12/14 03:56:11;;;;;;;;;45.00;36.67;;;;;;;;5099899;27;46198;-63
2022/12/14 03:58:36;;;;;;;;;46.33;38.67;;;;;;;;5116983;27;45402;-63
2022/12/14 04:01:07;;;;;;;;;43.67;38.33;;;;;;;;5111266;27;45399;-63
2022/12/14 04:03:32;;;;;;;;;37.33;35.00;;;;;;;;5100355;27;45278;-63
2022/12/14 04:06:01;;;;;;;;;52.33;38.33;;;;;;;;5099765;27;46151;-63
2022/12/14 04:08:26;;;;;;;;;57.67;39.33;;;;;;;;5100041;27;45305;-63
2022/12/14 04:19:23;;;;;;;;;51.67;41.33;;;;;;;;5099611;27;45486;-63
2022/12/14 04:21:54;;;;;;;;;40.33;33.33;;;;;;;;5100052;27;45308;-63
2022/12/14 04:27:14;;;;;;;;;47.67;37.67;;;;;;;;5099535;27;45374;-63
2022/12/14 04:30:03;;;;;;;;;44.67;37.00;;;;;;;;5099543;27;45451;-63
2022/12/14 04:32:30;;;;;;;;;50.33;39.33;;;;;;;;5105421;27;45453;-62
2022/12/14 04:34:59;;;;;;;;;48.33;35.67;;;;;;;;5099521;27;45247;-63
2022/12/14 04:37:27;;;;;;;;;36.00;35.67;;;;;;;;5117400;27;46201;-63
2022/12/14 04:39:55;;;;;;;;;44.67;38.67;;;;;;;;5119968;27;45393;-63
2022/12/14 04:42:27;;;;;;;;;41.00;28.67;;;;;;;;5120112;27;45421;-63
2022/12/14 04:44:54;;;;;;;;;53.67;35.00;;;;;;;;5107302;27;45302;-63
2022/12/14 04:47:21;;;;;;;;;49.33;39.00;;;;;;;;5099117;27;46049;-63
2022/12/14 04:49:49;;;;;;;;;44.00;34.00;;;;;;;;5097744;27;45450;-63
2022/12/14 04:52:25;;;;;;;;;41.67;37.67;;;;;;;;5118996;27;45462;-63
2022/12/14 04:54:56;;;;;;;;;54.33;41.67;;;;;;;;5119760;27;45422;-63
2022/12/14 04:57:37;;;;;;;;;44.67;35.67;;;;;;;;5119469;27;47424;-63
2022/12/14 05:00:02;;;;;;;;;50.00;38.33;;;;;;;;5119619;27;45447;-63
2022/12/14 05:02:42;;;;;;;;;45.67;29.00;;;;;;;;5119353;27;45215;-63
2022/12/14 05:05:07;;;;;;;;;58.00;40.00;;;;;;;;5101437;27;45538;-63
2022/12/14 05:07:35;;;;;;;;;52.00;41.33;;;;;;;;5098638;27;46150;-63
2022/12/14 05:10:10;;;;;;;;;33.00;28.33;;;;;;;;5098987;27;45848;-63
2022/12/14 05:12:39;;;;;;;;;38.33;35.33;;;;;;;;5098976;27;45410;-63
2022/12/14 05:15:04;;;;;;;;;48.33;38.33;;;;;;;;5099454;27;45453;-63
2022/12/14 05:17:33;;;;;;;;;52.33;39.67;;;;;;;;5098369;27;45470;-63
2022/12/14 05:19:58;;;;;;;;;68.33;42.00;;;;;;;;5098969;27;45497;-63
2022/12/14 05:22:23;;;;;;;;;51.33;38.67;;;;;;;;5108023;27;45452;-63
2022/12/14 05:24:48;;;;;;;;;46.00;37.00;;;;;;;;5099037;27;45433;-63
2022/12/14 05:27:13;;;;;;;;;41.00;35.00;;;;;;;;5098644;27;46474;-63
2022/12/14 05:29:38;;;;;;;;;48.67;41.33;;;;;;;;5080107;27;45406;-63
2022/12/14 05:32:04;;;;;;;;;44.67;34.67;;;;;;;;5091573;27;45390;-63
2022/12/14 05:34:29;;;;;;;;;41.33;35.00;;;;;;;;5098633;27;45572;-63
2022/12/14 05:36:55;;;;;;;;;57.67;39.67;;;;;;;;5098074;27;46122;-63
2022/12/14 05:39:20;;;;;;;;;50.33;37.67;;;;;;;;5097186;27;45401;-63
2022/12/14 05:41:45;;;;;;;;;44.67;38.00;;;;;;;;5098318;27;45462;-63
2022/12/14 05:44:10;;;;;;;;;45.00;38.33;;;;;;;;5098585;27;45397;-63
2022/12/14 05:46:35;;;;;;;;;24.67;17.33;;;;;;;;5098354;27;47106;-63
2022/12/14 05:49:01;;;;;;;;;46.33;38.67;;;;;;;;5098303;27;45365;-63
2022/12/14 05:51:26;;;;;;;;;48.67;36.67;;;;;;;;5098213;27;45817;-63
2022/12/14 05:53:51;;;;;;;;;44.67;38.67;;;;;;;;5098548;27;45328;-63
2022/12/14 05:56:16;;;;;;;;;39.33;34.67;;;;;;;;5097153;27;46497;-63
2022/12/14 05:58:42;;;;;;;;;49.00;41.33;;;;;;;;5098252;27;45327;-64
2022/12/14 06:01:08;;;;;;;;;34.33;30.00;;;;;;;;5098091;27;45387;-64
2022/12/14 06:03:33;;;;;;;;;42.67;34.67;;;;;;;;5098490;27;45423;-64
2022/12/14 06:06:00;;;;;;;;;37.33;32.33;;;;;;;;5097404;27;46039;-64
2022/12/14 06:08:25;;;;;;;;;40.00;33.33;;;;;;;;5097995;27;45423;-63
2022/12/14 06:10:51;;;;;;;;;49.67;38.00;;;;;;;;5097976;27;45451;-63
2022/12/14 06:13:16;;;;;;;;;48.00;36.67;;;;;;;;5079822;27;46180;-64
2022/12/14 06:15:41;;;;;;;;;48.67;38.67;;;;;;;;5077264;28;45416;-63
2022/12/14 06:18:06;;;;;;;;;48.67;41.33;;;;;;;;5077239;28;45748;-63
2022/12/14 06:20:31;;;;;;;;;65.00;49.67;;;;;;;;5077872;27;45188;-63
2022/12/14 06:22:57;;;;;;;;;60.33;45.33;;;;;;;;5088253;27;45238;-63
2022/12/14 06:25:22;;;;;;;;;62.67;46.67;;;;;;;;5138595;27;46343;-63
2022/12/14 06:27:51;;;;;;;;;61.67;46.00;;;;;;;;5139314;27;45479;-63
2022/12/14 06:30:16;;;;;;;;;62.00;45.67;;;;;;;;5133715;27;45580;-63
2022/12/14 06:32:41;;;;;;;;;57.67;43.00;;;;;;;;5118234;27;45577;-64
2022/12/14 06:35:07;;;;;;;;;69.67;55.00;;;;;;;;5138351;27;46142;-64
2022/12/14 06:37:32;;;;;;;;;49.67;43.33;;;;;;;;5133123;27;45343;-64
2022/12/14 06:39:57;;;;;;;;;54.67;47.00;;;;;;;;5118201;27;45368;-64
2022/12/14 06:42:23;;;;;;;;;69.33;48.00;;;;;;;;5118282;27;45418;-64
2022/12/14 06:44:48;;;;;;;;;61.67;46.00;;;;;;;;5119135;27;46464;-64
2022/12/14 06:47:13;;;;;;;;;56.00;40.67;;;;;;;;5136912;27;45318;-63
2022/12/14 06:49:38;;;;;;;;;56.00;44.00;;;;;;;;5135810;27;45350;-63
2022/12/14 06:52:04;;;;;;;;;59.67;48.33;;;;;;;;5117917;27;45590;-63
2022/12/14 06:54:29;;;;;;;;;89.75;67.25;;;;;;;;5125121;27;47334;-63
2022/12/14 06:56:54;;;;;;;;;72.25;56.25;;;;;;;;5138565;27;45399;-63
2022/12/14 06:59:19;;;;;;;;;58.67;39.67;;;;;;;;5138524;27;45584;-63
2022/12/14 07:01:45;;;;;;;;;58.67;45.33;;;;;;;;5139014;27;45334;-63
2022/12/14 07:04:10;;;;;;;;;54.67;43.33;;;;;;;;5138362;27;46506;-63
2022/12/14 07:06:37;;;;;;;;;53.67;44.00;;;;;;;;5117417;27;45378;-64
2022/12/14 07:09:03;;;;;;;;;60.33;46.67;;;;;;;;5117852;27;45443;-63
2022/12/14 07:11:29;;;;;;;;;64.00;49.00;;;;;;;;5118190;27;45363;-63
2022/12/14 07:13:55;;;;;;;;;53.00;43.00;;;;;;;;5121235;27;45444;-63
2022/12/14 07:16:22;;;;;;;;;52.33;42.33;;;;;;;;5121226;27;45817;-63
2022/12/14 07:18:47;;;;;;;;;57.33;44.67;;;;;;;;5121505;27;45331;-64
2022/12/14 07:21:13;;;;;;;;;63.00;48.00;;;;;;;;5141626;27;45292;-63
2022/12/14 07:23:39;;;;;;;;;50.67;42.67;;;;;;;;5141631;27;46478;-64
2022/12/14 07:26:06;;;;;;;;;51.00;43.00;;;;;;;;5142024;27;45472;-64
2022/12/14 07:28:31;;;;;;;;;58.67;45.33;;;;;;;;5123569;27;45340;-64
2022/12/14 07:30:57;;;;;;;;;64.00;49.33;;;;;;;;5121376;27;45309;-63
2022/12/14 07:33:23;;;;;;;;;51.67;45.33;;;;;;;;5132691;27;46709;-63
2022/12/14 07:35:49;;;;;;;;;54.33;44.67;;;;;;;;5127600;27;45461;-63
2022/12/14 07:38:14;;;;;;;;;50.33;38.33;;;;;;;;5126641;27;45389;-63
2022/12/14 07:40:39;;;;;;;;;61.67;45.67;;;;;;;;5142187;27;45453;-63
2022/12/14 07:43:05;;;;;;;;;65.00;51.67;;;;;;;;5141497;27;45568;-63
2022/12/14 07:45:30;;;;;;;;;60.00;47.67;;;;;;;;5131703;27;45442;-63
2022/12/14 07:47:55;;;;;;;;;72.75;55.50;;;;;;;;5120534;27;45741;-63
2022/12/14 07:50:21;;;;;;;;;44.67;38.33;;;;;;;;5120439;27;45442;-63
2022/12/14 07:52:46;;;;;;;;;56.67;44.33;;;;;;;;5137664;27;46408;-63
2022/12/14 07:55:11;;;;;;;;;63.00;45.67;;;;;;;;5138990;27;45456;-64
2022/12/14 07:57:36;;;;;;;;;61.67;43.67;;;;;;;;5138816;27;45489;-63
2022/12/14 08:00:02;;;;;;;;;64.33;46.00;;;;;;;;5139019;27;45343;-63
2022/12/14 08:02:28;;;;;;;;;42.33;39.00;;;;;;;;5140661;27;47666;-62
2022/12/14 08:04:53;;;;;;;;;57.67;41.00;;;;;;;;5142343;27;45728;-63
2022/12/14 08:07:18;;;;;;;;;70.67;53.33;;;;;;;;5139753;27;45268;-63
2022/12/14 08:09:43;;;;;;;;;56.00;42.00;;;;;;;;5142957;27;45409;-63
2022/12/14 08:12:08;;;;;;;;;60.33;46.33;;;;;;;;5139291;27;45331;-64
2022/12/14 08:14:34;;;;;;;;;60.33;45.67;;;;;;;;5141350;27;45780;-63
2022/12/14 08:16:59;;;;;;;;;53.67;42.00;;;;;;;;5138527;27;45385;-64
2022/12/14 08:19:24;;;;;;;;;59.67;43.67;;;;;;;;5120846;27;45963;-64
2022/12/14 08:21:49;;;;;;;;;62.00;47.00;;;;;;;;5120503;27;45408;-64
2022/12/14 08:24:15;;;;;;;;;61.00;46.00;;;;;;;;5118717;27;45563;-63
2022/12/14 08:26:41;;;;;;;;;51.67;39.33;;;;;;;;5120603;27;45397;-63
2022/12/14 08:29:06;;;;;;;;;75.67;58.00;;;;;;;;5120594;27;45232;-63
2022/12/14 08:31:31;;;;;;;;;74.33;57.33;;;;;;;;5120247;27;47553;-64
2022/12/14 08:33:57;;;;;;;;;75.33;54.67;;;;;;;;5120094;27;45541;-63
2022/12/14 08:36:25;;;;;;;;;71.33;53.00;;;;;;;;5119585;27;45190;-64
2022/12/14 08:38:53;;;;;;;;;75.25;55.75;;;;;;;;5120239;27;45406;-63
2022/12/14 08:41:18;;;;;;;;;74.00;55.33;;;;;;;;5119904;27;47217;-64
2022/12/14 08:43:47;;;;;;;;;72.00;50.33;;;;;;;;5132381;27;45430;-63
2022/12/14 08:46:12;;;;;;;;;66.33;48.33;;;;;;;;5145672;27;45408;-63
2022/12/14 08:48:38;;;;;;;;;65.00;52.33;;;;;;;;5161536;27;45494;-63
2022/12/14 08:51:05;;;;;;;;;79.00;56.75;;;;;;;;5142739;27;45488;-63
2022/12/14 08:53:30;;;;;;;;;64.67;52.67;;;;;;;;5161553;27;45377;-63
2022/12/14 08:55:56;;;;;;;;;73.33;54.67;;;;;;;;5161491;27;45325;-63
2022/12/14 08:58:21;;;;;;;;;74.33;54.33;;;;;;;;5128722;27;46644;-63
2022/12/14 09:00:46;;;;;;;;;73.67;56.67;;;;;;;;5130999;27;45493;-62
2022/12/14 09:03:11;;;;;;;;;81.25;56.00;;;;;;;;5136359;27;45742;-62
2022/12/14 09:05:37;;;;;;;;;73.50;58.00;;;;;;;;5130604;27;45556;-62
2022/12/14 09:08:03;;;;;;;;;88.25;63.25;;;;;;;;5133185;27;45419;-62
2022/12/14 09:10:28;;;;;;;;;77.75;61.00;;;;;;;;5126622;27;45437;-61
2022/12/14 09:12:53;;;;;;;;;75.00;58.67;;;;;;;;5119675;27;45327;-62
2022/12/14 09:15:18;;;;;;;;;71.67;54.67;;;;;;;;5123360;27;45414;-62
2022/12/14 09:17:43;;;;;;;;;74.00;57.33;;;;;;;;5132706;27;45445;-61
2022/12/14 09:20:11;;;;;;;;;79.33;58.33;;;;;;;;5139458;27;47418;-61
2022/12/14 09:22:36;;;;;;;;;77.00;58.00;;;;;;;;5139962;27;45283;-62
2022/12/14 09:25:03;;;;;;;;;67.33;53.33;;;;;;;;5139963;27;45541;-62
2022/12/14 09:27:28;;;;;;;;;61.67;47.67;;;;;;;;5155516;27;46062;-62
2022/12/14 09:29:53;;;;;;;;;59.33;50.33;;;;;;;;5146570;27;45395;-61
2022/12/14 09:32:19;;;;;;;;;86.75;64.50;;;;;;;;5155183;27;45471;-63
2022/12/14 09:34:44;;;;;;;;;75.50;57.50;;;;;;;;5140594;27;45566;-61
2022/12/14 09:37:09;;;;;;;;;80.50;60.75;;;;;;;;5131013;27;45661;-62
2022/12/14 09:39:36;;;;;;;;;87.00;69.25;;;;;;;;5140613;27;46260;-62
2022/12/14 09:42:07;;;;;;;;;65.33;51.00;;;;;;;;5140139;27;45542;-62
2022/12/14 09:44:36;;;;;;;;;66.33;51.00;;;;;;;;5136883;27;45801;-62
2022/12/14 09:47:01;;;;;;;;;66.67;52.33;;;;;;;;5134376;27;45407;-62
2022/12/14 09:49:29;;;;;;;;;68.75;53.00;;;;;;;;5139486;27;46320;-62
2022/12/14 09:51:56;;;;;;;;;65.00;46.00;;;;;;;;5148422;27;45462;-62
2022/12/14 09:54:22;;;;;;;;;64.00;48.00;;;;;;;;5141096;27;45396;-62
2022/12/14 09:56:48;;;;;;;;;74.00;56.25;;;;;;;;5160863;27;45311;-62
2022/12/14 09:59:16;;;;;;;;;59.00;44.67;;;;;;;;5140322;27;46074;-62
2022/12/14 10:01:41;;;;;;;;;61.67;49.00;;;;;;;;5136571;27;45559;-62
2022/12/14 10:04:19;;;;;;;;;63.33;42.00;;;;;;;;5139577;27;45334;-62
2022/12/14 10:07:03;;;;;;;;;61.33;48.00;;;;;;;;5139711;27;45378;-62
2022/12/14 10:09:34;;;;;;;;;62.67;46.67;;;;;;;;5139119;27;45384;-62
2022/12/14 10:12:05;;;;;;;;;48.33;37.00;;;;;;;;5139341;27;45353;-62
2022/12/14 10:14:43;;;;;;;;;55.67;45.33;;;;;;;;5139378;27;45737;-62
2022/12/14 10:17:08;;;;;;;;;56.67;42.00;;;;;;;;5138334;27;45350;-62
2022/12/14 10:19:40;;;;;;;;;60.00;47.67;;;;;;;;5139290;27;46122;-62
2022/12/14 10:22:19;;;;;;;;;63.33;45.33;;;;;;;;5138545;27;45386;-62
2022/12/14 10:25:07;;;;;;;;;59.33;43.00;;;;;;;;5118133;27;45462;-62
2022/12/14 10:27:33;;;;;;;;;73.33;56.33;;;;;;;;5104770;27;45417;-61
2022/12/14 10:30:10;;;;;;;;;62.33;48.67;;;;;;;;5132332;27;47751;-62
2022/12/14 10:32:37;;;;;;;;;55.00;42.00;;;;;;;;5137870;27;45531;-62
2022/12/14 10:35:11;;;;;;;;;56.67;43.00;;;;;;;;5129481;27;45447;-62
2022/12/14 10:37:38;;;;;;;;;60.00;45.33;;;;;;;;5118280;27;45470;-62
2022/12/14 10:40:19;;;;;;;;;62.33;46.67;;;;;;;;5118040;27;47357;-62
2022/12/14 10:43:03;;;;;;;;;56.67;41.00;;;;;;;;5118212;27;45512;-62
2022/12/14 10:45:28;;;;;;;;;51.00;41.00;;;;;;;;5117978;27;45373;-61
2022/12/14 10:48:04;;;;;;;;;52.00;41.33;;;;;;;;5140620;27;45487;-62
2022/12/14 10:50:51;;;;;;;;;56.67;46.33;;;;;;;;5159894;27;45563;-62
2022/12/14 10:53:18;;;;;;;;;51.00;43.33;;;;;;;;5124015;27;45449;-62
2022/12/14 10:55:44;;;;;;;;;64.33;48.67;;;;;;;;5131102;27;45825;-62
2022/12/14 10:58:10;;;;;;;;;60.67;47.00;;;;;;;;5133120;27;45515;-62
2022/12/14 11:00:36;;;;;;;;;57.33;44.33;;;;;;;;5143286;27;46338;-62
2022/12/14 11:03:01;;;;;;;;;70.00;51.33;;;;;;;;5138226;27;45424;-62
2022/12/14 11:05:26;;;;;;;;;60.67;46.00;;;;;;;;5131451;27;45386;-62
2022/12/14 11:07:51;;;;;;;;;62.67;48.00;;;;;;;;5119593;27;45446;-62
2022/12/14 11:10:20;;;;;;;;;45.67;37.33;;;;;;;;5136263;27;46441;-62
2022/12/14 11:13:04;;;;;;;;;56.67;43.67;;;;;;;;5134417;27;45399;-61
2022/12/14 11:15:33;;;;;;;;;57.00;43.33;;;;;;;;5138142;27;45326;-62
2022/12/14 11:18:20;;;;;;;;;68.33;49.67;;;;;;;;5138601;27;45451;-62
2022/12/14 11:20:53;;;;;;;;;45.00;30.67;;;;;;;;5138282;27;46390;-62
2022/12/14 11:23:20;;;;;;;;;61.67;48.00;;;;;;;;5137972;27;45562;-62
2022/12/14 11:25:47;;;;;;;;;62.33;45.33;;;;;;;;5131133;27;45876;-62
2022/12/14 11:28:29;;;;;;;;;55.33;44.33;;;;;;;;5117506;27;45297;-62
2022/12/14 11:31:05;;;;;;;;;63.00;47.00;;;;;;;;5135889;27;47132;-62
2022/12/14 11:33:34;;;;;;;;;51.00;43.33;;;;;;;;5139212;27;45363;-62
2022/12/14 11:36:00;;;;;;;;;48.00;38.33;;;;;;;;5138457;27;45414;-62
2022/12/14 11:38:27;;;;;;;;;55.33;46.00;;;;;;;;5138376;27;45322;-61
2022/12/14 11:40:52;;;;;;;;;62.33;42.67;;;;;;;;5136206;27;47303;-62
2022/12/14 11:43:23;;;;;;;;;57.67;44.33;;;;;;;;5126241;27;45369;-62
2022/12/14 11:45:53;;;;;;;;;61.33;45.00;;;;;;;;5117696;27;45880;-61
2022/12/14 11:48:19;;;;;;;;;58.00;45.00;;;;;;;;5119487;27;45629;-61
2022/12/14 11:50:46;;;;;;;;;60.67;45.67;;;;;;;;5158261;27;46179;-62
2022/12/14 11:53:13;;;;;;;;;56.00;45.00;;;;;;;;5130225;27;45449;-63
2022/12/14 11:55:42;;;;;;;;;57.67;43.00;;;;;;;;5147080;27;45535;-63
2022/12/14 11:58:36;;;;;;;;;64.00;48.33;;;;;;;;5160580;27;45843;-63
2022/12/14 12:01:03;;;;;;;;;59.67;46.33;;;;;;;;5057978;28;45513;-63
2022/12/14 12:03:33;;;;;;;;;54.67;44.67;;;;;;;;5051092;28;45780;-63
2022/12/14 12:06:00;;;;;;;;;62.67;46.33;;;;;;;;5057144;28;45274;-64
2022/12/14 12:08:27;;;;;;;;;55.67;44.33;;;;;;;;5042838;28;45507;-64
2022/12/14 12:10:54;;;;;;;;;60.33;44.67;;;;;;;;5046851;28;45390;-64
2022/12/14 12:13:30;;;;;;;;;61.33;47.33;;;;;;;;5039421;28;45479;-64
2022/12/14 12:15:59;;;;;;;;;52.67;41.00;;;;;;;;5053886;28;45672;-64
2022/12/14 12:18:27;;;;;;;;;59.00;44.67;;;;;;;;5057098;28;45540;-64
2022/12/14 12:21:02;;;;;;;;;57.67;45.00;;;;;;;;5054462;28;45436;-64
2022/12/14 12:23:34;;;;;;;;;65.67;47.33;;;;;;;;5034005;28;45873;-63
2022/12/14 12:26:03;;;;;;;;;55.67;41.33;;;;;;;;5034538;28;45541;-64
2022/12/14 12:28:31;;;;;;;;;59.00;44.00;;;;;;;;5035828;28;45583;-64
2022/12/14 12:31:01;;;;;;;;;63.33;48.00;;;;;;;;5033267;28;46170;-63
2022/12/14 12:33:26;;;;;;;;;63.00;44.67;;;;;;;;5023721;28;45301;-63
2022/12/14 12:35:53;;;;;;;;;54.33;45.67;;;;;;;;5072075;28;45443;-63
2022/12/14 12:38:28;;;;;;;;;66.33;50.33;;;;;;;;5112686;27;46660;-64
2022/12/14 12:41:00;;;;;;;;;63.00;44.33;;;;;;;;5112935;27;47237;-64
2022/12/14 12:43:28;;;;;;;;;62.67;49.67;;;;;;;;5118687;27;45457;-64
2022/12/14 12:45:53;;;;;;;;;63.33;48.67;;;;;;;;5118611;27;45863;-64
2022/12/14 12:48:22;;;;;;;;;62.67;49.00;;;;;;;;5119192;27;45420;-64
2022/12/14 12:50:49;;;;;;;;;58.67;45.67;;;;;;;;5118543;27;46535;-64
2022/12/14 12:53:24;;;;;;;;;58.67;46.00;;;;;;;;5119040;27;45391;-64
2022/12/14 12:55:56;;;;;;;;;59.67;43.33;;;;;;;;5117614;27;45392;-63
2022/12/14 12:58:24;;;;;;;;;59.33;43.67;;;;;;;;5113641;27;46294;-63
2022/12/14 13:00:54;;;;;;;;;62.67;48.67;;;;;;;;5125582;27;48008;-63
2022/12/14 13:03:24;;;;;;;;;60.67;46.67;;;;;;;;5139572;27;45447;-64
2022/12/14 13:05:51;;;;;;;;;59.33;43.67;;;;;;;;5118354;27;45370;-63
2022/12/14 13:08:27;;;;;;;;;57.67;44.67;;;;;;;;5119254;27;45532;-63
2022/12/14 13:10:54;;;;;;;;;56.33;44.00;;;;;;;;5117672;27;45490;-64
2022/12/14 13:13:25;;;;;;;;;54.00;42.67;;;;;;;;5108955;27;45465;-64
2022/12/14 13:15:53;;;;;;;;;59.00;42.67;;;;;;;;5139732;27;45378;-64
2022/12/14 13:18:23;;;;;;;;;57.33;42.00;;;;;;;;5126397;27;45382;-65
2022/12/14 13:20:49;;;;;;;;;52.00;45.33;;;;;;;;5131316;27;46128;-63
2022/12/14 13:23:15;;;;;;;;;48.33;40.33;;;;;;;;5118515;27;45354;-63
2022/12/14 13:25:51;;;;;;;;;57.33;44.00;;;;;;;;5102229;27;45399;-63
2022/12/14 13:28:23;;;;;;;;;48.67;40.67;;;;;;;;5102054;27;45375;-63
2022/12/14 13:31:01;;;;;;;;;48.67;42.33;;;;;;;;5112659;27;45669;-63
2022/12/14 13:33:29;;;;;;;;;49.67;40.33;;;;;;;;5105185;27;45473;-63
2022/12/14 13:35:54;;;;;;;;;55.33;42.00;;;;;;;;5119036;27;45453;-63
2022/12/14 13:38:19;;;;;;;;;52.33;40.33;;;;;;;;5116683;27;45340;-65
2022/12/14 13:40:47;;;;;;;;;63.67;42.33;;;;;;;;5114382;27;46713;-64
2022/12/14 13:43:12;;;;;;;;;53.00;42.00;;;;;;;;5112606;27;45536;-64
2022/12/14 13:45:40;;;;;;;;;51.00;42.67;;;;;;;;5103444;27;45536;-64
2022/12/14 13:48:14;;;;;;;;;48.33;42.00;;;;;;;;5114898;27;45490;-64
2022/12/14 13:50:40;;;;;;;;;51.67;39.00;;;;;;;;5114755;27;45575;-64
2022/12/14 13:53:18;;;;;;;;;55.00;41.67;;;;;;;;5105072;27;45664;-64
2022/12/14 13:55:48;;;;;;;;;50.67;42.00;;;;;;;;5114405;27;46941;-64
2022/12/14 13:58:19;;;;;;;;;45.67;38.33;;;;;;;;5113884;27;46313;-64
2022/12/14 14:00:44;;;;;;;;;52.67;42.00;;;;;;;;5115479;27;46111;-64
2022/12/14 14:03:28;;;;;;;;;40.00;33.00;;;;;;;;5109065;27;45368;-64
2022/12/14 14:06:00;;;;;;;;;46.67;38.67;;;;;;;;5116816;27;45624;-64
2022/12/14 14:08:27;;;;;;;;;49.33;38.33;;;;;;;;5091270;27;45586;-64
2022/12/14 14:10:52;;;;;;;;;43.33;40.33;;;;;;;;5109631;27;46997;-64
2022/12/14 14:13:26;;;;;;;;;49.67;40.00;;;;;;;;5115771;27;45541;-64
2022/12/14 14:16:12;;;;;;;;;46.33;38.00;;;;;;;;5110872;27;45543;-64
2022/12/14 14:18:47;;;;;;;;;49.33;39.33;;;;;;;;5107292;27;45369;-64
2022/12/14 14:21:12;;;;;;;;;57.67;45.00;;;;;;;;5117550;27;46513;-64
2022/12/14 14:23:52;;;;;;;;;48.33;39.67;;;;;;;;5123431;27;45198;-64
2022/12/14 14:26:19;;;;;;;;;50.67;39.67;;;;;;;;5138893;27;45488;-64
2022/12/14 14:28:44;;;;;;;;;41.33;38.33;;;;;;;;5138890;27;45319;-64
2022/12/14 14:31:10;;;;;;;;;59.33;45.33;;;;;;;;5138658;27;46391;-65
2022/12/14 14:33:38;;;;;;;;;59.67;41.67;;;;;;;;5113269;27;45449;-64